Andover, Massachusetts
Current Conditions -  °F | °C
As of 10:54 PM on Wednesday 22 Oct 2014 (Local Time) from KLWM Reporting Station
Heavy Rain Heavy Rain  
Wind Chill: 42°   Ceiling: 900
Heat Index: 49°   Visibility: 3mi
Dew Point: 47°   Wind: 23mph
Humidity: 93%   Direction: 30°NNE
Pressure: 29.89"   Gusts: 33mph
Location:  42.65°N, 71.14°W
Report Text: KLWM 230254Z AUTO 03020G29KT 3SM +RA BR OVC009 09/08 A2989 RMK AO2 PK WND 05038/0200 CIG 006V013 SLP121 P0004 60011 T00940083 58009
Loading
Personal Weather Stations






























Interactive Weather Map New forecast layout! Learn more

10-Day Weather Forecast

Advertisements
Track Severe Weather on mobile